Time;durP1;ratioP1;P1;durP2;ratioP2;P2;SDS_P1;SDS_P2;PMS_P1;PMS_P2;Temp;Humidity;BMP_temperature;BMP_pressure;BME280_temperature;BME280_humidity;BME280_pressure;Samples;Min_cycle;Max_cycle;Signal;HPM_P1;HPM_P2
2021/12/04 00:02:02;;;;;;;;;9.50;6.75;;;;;;;;4977899;28;45784;-72
2021/12/04 00:04:31;;;;;;;;;7.25;7.25;;;;;;;;4977721;28;45349;-74
2021/12/04 00:06:57;;;;;;;;;7.25;7.25;;;;;;;;4977724;28;45453;-73
2021/12/04 00:09:22;;;;;;;;;4.00;4.00;;;;;;;;4977057;28;46194;-74
2021/12/04 00:11:56;;;;;;;;;8.25;6.50;;;;;;;;4959522;28;45397;-74
2021/12/04 00:14:22;;;;;;;;;6.75;5.25;;;;;;;;4977777;28;45460;-74
2021/12/04 00:16:47;;;;;;;;;3.75;3.75;;;;;;;;4977603;28;45485;-72
2021/12/04 00:19:13;;;;;;;;;0.25;0.25;;;;;;;;4977408;28;45396;-74
2021/12/04 00:21:38;;;;;;;;;3.50;2.75;;;;;;;;4976965;28;45464;-74
2021/12/04 00:24:04;;;;;;;;;1.00;1.00;;;;;;;;4977801;28;45691;-80
2021/12/04 00:26:30;;;;;;;;;0.50;0.50;;;;;;;;4977431;28;45345;-74
2021/12/04 00:28:55;;;;;;;;;3.25;2.25;;;;;;;;4977704;28;46702;-73
2021/12/04 00:31:20;;;;;;;;;1.00;1.00;;;;;;;;4977593;28;45319;-71
2021/12/04 00:33:47;;;;;;;;;1.00;1.00;;;;;;;;4977546;28;45322;-75
2021/12/04 00:36:29;;;;;;;;;2.75;1.75;;;;;;;;4977048;28;45327;-72
2021/12/04 00:49:50;;;;;;;;;2.25;2.25;;;;;;;;4976480;28;45450;-73
2021/12/04 00:52:15;;;;;;;;;1.00;1.00;;;;;;;;4977168;28;45490;-72
2021/12/04 00:54:40;;;;;;;;;0.00;0.00;;;;;;;;4976949;28;45429;-73
2021/12/04 00:57:06;;;;;;;;;0.00;0.00;;;;;;;;4976386;28;45384;-76
2021/12/04 00:59:35;;;;;;;;;2.00;0.00;;;;;;;;4976048;28;46724;-72
2021/12/04 01:02:00;;;;;;;;;1.50;1.50;;;;;;;;4976713;28;45379;-73
2021/12/04 01:04:25;;;;;;;;;0.50;0.50;;;;;;;;4976924;28;45379;-72
2021/12/04 01:06:51;;;;;;;;;0.00;0.00;;;;;;;;4977396;28;45457;-74
2021/12/04 01:09:17;;;;;;;;;0.00;0.00;;;;;;;;4976557;28;46103;-74
2021/12/04 01:11:43;;;;;;;;;1.00;0.50;;;;;;;;4976745;28;45403;-75
2021/12/04 01:14:10;;;;;;;;;0.00;0.00;;;;;;;;4976845;28;45335;-75
2021/12/04 01:16:35;;;;;;;;;0.00;0.00;;;;;;;;4976816;28;45431;-75
2021/12/04 01:19:00;;;;;;;;;0.00;0.00;;;;;;;;4976258;28;46147;-74
2021/12/04 01:21:26;;;;;;;;;0.00;0.00;;;;;;;;4976132;28;45524;-74
2021/12/04 01:23:51;;;;;;;;;0.75;0.75;;;;;;;;4976865;28;45470;-72
2021/12/04 01:26:16;;;;;;;;;0.00;0.00;;;;;;;;4976804;28;45504;-73
2021/12/04 01:28:41;;;;;;;;;0.75;0.00;;;;;;;;4976675;28;46652;-73
2021/12/04 01:31:07;;;;;;;;;0.00;0.00;;;;;;;;4976472;28;45499;-71
2021/12/04 01:33:33;;;;;;;;;2.00;0.00;;;;;;;;4976209;28;45694;-72
2021/12/04 01:35:58;;;;;;;;;0.00;0.00;;;;;;;;4958112;28;45557;-72
2021/12/04 01:38:23;;;;;;;;;3.00;2.00;;;;;;;;4976616;28;45451;-74
2021/12/04 01:40:49;;;;;;;;;0.25;0.25;;;;;;;;4976464;28;45709;-74
2021/12/04 01:43:14;;;;;;;;;0.00;0.00;;;;;;;;4976763;28;45284;-75
2021/12/04 01:45:39;;;;;;;;;0.00;0.00;;;;;;;;4976799;28;45360;-75
2021/12/04 01:48:05;;;;;;;;;0.00;0.00;;;;;;;;4976213;28;45507;-73
2021/12/04 01:50:31;;;;;;;;;0.00;0.00;;;;;;;;4976379;28;45447;-74
2021/12/04 01:52:58;;;;;;;;;1.00;1.00;;;;;;;;4975155;28;45392;-74
2021/12/04 01:55:28;;;;;;;;;0.00;0.00;;;;;;;;4975835;28;45372;-73
2021/12/04 01:57:54;;;;;;;;;1.00;1.00;;;;;;;;4976030;28;45398;-74
2021/12/04 02:00:19;;;;;;;;;0.00;0.00;;;;;;;;4958202;28;45690;-75
2021/12/04 02:02:44;;;;;;;;;0.00;0.00;;;;;;;;4976374;28;45385;-72
2021/12/04 02:05:10;;;;;;;;;1.00;0.00;;;;;;;;4976510;28;45292;-79
2021/12/04 02:07:35;;;;;;;;;0.00;0.00;;;;;;;;4995782;28;48021;-73
2021/12/04 02:10:03;;;;;;;;;0.00;0.00;;;;;;;;4995436;28;45453;-77
2021/12/04 02:12:28;;;;;;;;;0.00;0.00;;;;;;;;4996262;28;45734;-75
2021/12/04 02:14:54;;;;;;;;;28.25;24.25;;;;;;;;4995947;28;45319;-74
2021/12/04 02:17:19;;;;;;;;;0.00;0.00;;;;;;;;4965636;28;47362;-75
2021/12/04 02:19:47;;;;;;;;;0.00;0.00;;;;;;;;4990185;28;45416;-74
2021/12/04 02:22:12;;;;;;;;;0.00;0.00;;;;;;;;4995737;28;45415;-75
2021/12/04 02:24:38;;;;;;;;;0.00;0.00;;;;;;;;4995722;28;45343;-75
2021/12/04 02:27:03;;;;;;;;;0.00;0.00;;;;;;;;4977961;28;46525;-73
2021/12/04 02:29:30;;;;;;;;;2.00;2.00;;;;;;;;4995644;28;45414;-73
2021/12/04 02:31:57;;;;;;;;;0.50;0.50;;;;;;;;4995923;28;45280;-73
2021/12/04 02:34:23;;;;;;;;;0.00;0.00;;;;;;;;4995716;28;45339;-75
2021/12/04 02:36:48;;;;;;;;;0.00;0.00;;;;;;;;4995248;28;47300;-74
2021/12/04 02:39:28;;;;;;;;;0.00;0.00;;;;;;;;4995292;28;45920;-70
2021/12/04 02:41:54;;;;;;;;;0.00;0.00;;;;;;;;4995122;28;45539;-70
2021/12/04 02:44:19;;;;;;;;;1.00;1.00;;;;;;;;4978556;28;45445;-70
2021/12/04 02:46:45;;;;;;;;;1.00;1.00;;;;;;;;4989940;28;47177;-70
2021/12/04 02:49:12;;;;;;;;;0.00;0.00;;;;;;;;4987178;28;45347;-70
2021/12/04 02:51:38;;;;;;;;;0.00;0.00;;;;;;;;4988247;28;45382;-70
2021/12/04 02:54:04;;;;;;;;;0.00;0.00;;;;;;;;4995189;28;45212;-70
2021/12/04 02:56:29;;;;;;;;;0.00;0.00;;;;;;;;4997685;28;46257;-71
2021/12/04 02:59:01;;;;;;;;;0.00;0.00;;;;;;;;4981174;28;45442;-70
2021/12/04 03:01:26;;;;;;;;;0.00;0.00;;;;;;;;4999099;28;45398;-69
2021/12/04 03:03:51;;;;;;;;;2.00;0.00;;;;;;;;4999651;28;45340;-71
2021/12/04 03:06:16;;;;;;;;;1.00;0.00;;;;;;;;4999380;28;46743;-69
2021/12/04 03:08:42;;;;;;;;;0.00;0.00;;;;;;;;4999299;28;45407;-71
2021/12/04 03:11:07;;;;;;;;;0.00;0.00;;;;;;;;4981376;28;45374;-70
2021/12/04 03:13:32;;;;;;;;;0.00;0.00;;;;;;;;4999734;28;45396;-69
2021/12/04 03:15:59;;;;;;;;;0.00;0.00;;;;;;;;4999339;28;46375;-71
2021/12/04 03:18:25;;;;;;;;;0.00;0.00;;;;;;;;4999397;28;45425;-69
2021/12/04 03:20:52;;;;;;;;;0.00;0.00;;;;;;;;4999371;28;45288;-71
2021/12/04 03:23:26;;;;;;;;;0.00;0.00;;;;;;;;4999493;28;45474;-71
2021/12/04 03:25:54;;;;;;;;;0.00;0.00;;;;;;;;4998079;28;45483;-70
2021/12/04 03:28:20;;;;;;;;;0.00;0.00;;;;;;;;4999144;28;45490;-70
2021/12/04 03:31:11;;;;;;;;;0.00;0.00;;;;;;;;4999151;28;45436;-70
2021/12/04 03:41:45;;;;;;;;;0.00;0.00;;;;;;;;4999107;28;45339;-70
2021/12/04 03:44:10;;;;;;;;;0.00;0.00;;;;;;;;4997724;28;45260;-70
2021/12/04 03:46:35;;;;;;;;;0.00;0.00;;;;;;;;4998921;28;46160;-71
2021/12/04 03:49:00;;;;;;;;;0.00;0.00;;;;;;;;4999007;28;45439;-70
2021/12/04 03:51:26;;;;;;;;;0.00;0.00;;;;;;;;4999070;28;45295;-71
2021/12/04 03:53:51;;;;;;;;;0.00;0.00;;;;;;;;4998885;28;45562;-71
2021/12/04 03:56:21;;;;;;;;;0.00;0.00;;;;;;;;4998133;28;46388;-71
2021/12/04 03:58:46;;;;;;;;;1.00;1.00;;;;;;;;4998244;28;45433;-71
2021/12/04 04:01:12;;;;;;;;;0.00;0.00;;;;;;;;4998852;28;45387;-71
2021/12/04 04:03:37;;;;;;;;;0.00;0.00;;;;;;;;4981276;28;45657;-72
2021/12/04 04:06:02;;;;;;;;;1.00;0.00;;;;;;;;4996643;28;45540;-71
2021/12/04 04:08:28;;;;;;;;;0.50;0.00;;;;;;;;4998625;28;45334;-72
2021/12/04 04:10:54;;;;;;;;;0.00;0.00;;;;;;;;4978770;28;45382;-72
2021/12/04 04:13:20;;;;;;;;;0.00;0.00;;;;;;;;4979012;28;45369;-70
2021/12/04 04:15:45;;;;;;;;;0.00;0.00;;;;;;;;4978819;28;45254;-71
2021/12/04 04:18:11;;;;;;;;;0.00;0.00;;;;;;;;4978803;28;45177;-70
2021/12/04 04:20:36;;;;;;;;;0.00;0.00;;;;;;;;4979071;28;45310;-75
2021/12/04 04:23:01;;;;;;;;;0.00;0.00;;;;;;;;4979369;28;45418;-71
2021/12/04 04:25:26;;;;;;;;;1.00;1.00;;;;;;;;4977903;28;45331;-73
2021/12/04 04:27:52;;;;;;;;;0.00;0.00;;;;;;;;4977923;28;45323;-71
2021/12/04 04:30:18;;;;;;;;;0.00;0.00;;;;;;;;4978918;28;45336;-71
2021/12/04 04:32:44;;;;;;;;;0.00;0.00;;;;;;;;4978808;28;45443;-71
2021/12/04 04:35:13;;;;;;;;;0.00;0.00;;;;;;;;4978500;28;46228;-71
2021/12/04 05:13:03;;;;;;;;;1.00;0.00;;;;;;;;4879682;29;45391;-70
2021/12/04 05:18:23;;;;;;;;;1.50;0.00;;;;;;;;4879444;29;45486;-71
2021/12/04 05:20:52;;;;;;;;;0.00;0.00;;;;;;;;4879739;29;45608;-71
2021/12/04 05:23:19;;;;;;;;;0.00;0.00;;;;;;;;4879658;29;45317;-70
2021/12/04 05:25:44;;;;;;;;;0.00;0.00;;;;;;;;4879539;29;45495;-72
2021/12/04 05:28:09;;;;;;;;;0.00;0.00;;;;;;;;4879040;29;47027;-71
2021/12/04 05:30:35;;;;;;;;;0.00;0.00;;;;;;;;4879475;29;45333;-73
2021/12/04 05:33:00;;;;;;;;;0.00;0.00;;;;;;;;4879821;29;45574;-70
2021/12/04 05:35:26;;;;;;;;;1.00;1.00;;;;;;;;4879650;29;45528;-71
2021/12/04 05:37:52;;;;;;;;;0.00;0.00;;;;;;;;4879445;29;45511;-70
2021/12/04 05:40:17;;;;;;;;;0.00;0.00;;;;;;;;4879492;29;45496;-70
2021/12/04 05:42:43;;;;;;;;;0.00;0.00;;;;;;;;4961215;28;45425;-72
2021/12/04 05:45:16;;;;;;;;;0.00;0.00;;;;;;;;4977474;28;45590;-71
2021/12/04 05:47:55;;;;;;;;;1.50;1.00;;;;;;;;4977211;28;45520;-71
2021/12/04 05:55:26;;;;;;;;;0.00;0.00;;;;;;;;4976824;28;45755;-72
2021/12/04 05:57:51;;;;;;;;;0.00;0.00;;;;;;;;4976303;28;47446;-69
2021/12/04 06:00:19;;;;;;;;;1.00;1.00;;;;;;;;4977372;28;45741;-70
2021/12/04 06:02:45;;;;;;;;;0.00;0.00;;;;;;;;4977275;28;45303;-71
2021/12/04 06:05:10;;;;;;;;;0.00;0.00;;;;;;;;4977381;28;45485;-73
2021/12/04 06:07:36;;;;;;;;;0.00;0.00;;;;;;;;4977215;28;45817;-74
2021/12/04 06:10:01;;;;;;;;;0.25;0.25;;;;;;;;4976810;28;45212;-71
2021/12/04 06:12:26;;;;;;;;;0.00;0.00;;;;;;;;4977197;28;45236;-71
2021/12/04 06:14:51;;;;;;;;;0.50;0.00;;;;;;;;4980485;28;45854;-73
2021/12/04 06:17:19;;;;;;;;;0.00;0.00;;;;;;;;4977002;28;46252;-72
2021/12/04 06:22:38;;;;;;;;;0.00;0.00;;;;;;;;4976509;28;45363;-70
2021/12/04 06:25:08;;;;;;;;;0.00;0.00;;;;;;;;4977142;28;45257;-70
2021/12/04 06:27:33;;;;;;;;;0.00;0.00;;;;;;;;4975779;28;46586;-70
2021/12/04 06:29:58;;;;;;;;;0.75;0.00;;;;;;;;4958289;28;45485;-70
2021/12/04 06:32:24;;;;;;;;;0.00;0.00;;;;;;;;4976876;28;45450;-70
2021/12/04 06:34:49;;;;;;;;;1.00;1.00;;;;;;;;4976501;28;45362;-70
2021/12/04 06:37:15;;;;;;;;;0.00;0.00;;;;;;;;4976178;28;46146;-77
2021/12/04 06:39:41;;;;;;;;;1.50;0.00;;;;;;;;4976993;28;45293;-76
2021/12/04 06:42:06;;;;;;;;;0.00;0.00;;;;;;;;4975162;28;45178;-75
2021/12/04 06:44:32;;;;;;;;;1.00;0.00;;;;;;;;4982213;28;45555;-76
2021/12/04 06:46:57;;;;;;;;;0.00;0.00;;;;;;;;4981973;28;45323;-78
2021/12/04 06:49:27;;;;;;;;;0.00;0.00;;;;;;;;4980636;28;46322;-78
2021/12/04 06:51:56;;;;;;;;;0.25;0.00;;;;;;;;4981433;28;45422;-78
2021/12/04 06:54:43;;;;;;;;;0.25;0.25;;;;;;;;4981404;28;45582;-78
2021/12/04 06:57:10;;;;;;;;;3.75;3.75;;;;;;;;4979993;28;45511;-79
2021/12/04 06:59:38;;;;;;;;;5.75;5.75;;;;;;;;4978347;28;46545;-78
2021/12/04 07:02:04;;;;;;;;;6.50;5.50;;;;;;;;4982190;28;45481;-80
2021/12/04 07:04:34;;;;;;;;;2.00;2.00;;;;;;;;4982177;28;45455;-76
2021/12/04 07:07:00;;;;;;;;;4.00;4.00;;;;;;;;4979164;28;48015;-77
2021/12/04 07:09:25;;;;;;;;;4.00;4.00;;;;;;;;4980402;28;45598;-78
2021/12/04 07:11:50;;;;;;;;;8.50;7.75;;;;;;;;4984912;28;45683;-76
2021/12/04 07:14:16;;;;;;;;;3.00;2.00;;;;;;;;4968282;28;45498;-79
2021/12/04 07:16:42;;;;;;;;;4.00;4.00;;;;;;;;4980784;28;45941;-79
2021/12/04 07:19:08;;;;;;;;;6.25;5.75;;;;;;;;4980894;28;45549;-81
2021/12/04 07:21:33;;;;;;;;;7.00;5.00;;;;;;;;4975849;28;45413;-78
2021/12/04 07:23:58;;;;;;;;;8.75;8.75;;;;;;;;4981274;28;45460;-75
2021/12/04 07:26:23;;;;;;;;;0.00;0.00;;;;;;;;4982662;28;46527;-73
2021/12/04 07:28:48;;;;;;;;;28.75;23.75;;;;;;;;4983980;28;45712;-75
2021/12/04 07:31:14;;;;;;;;;6.00;3.75;;;;;;;;4984331;28;45386;-74
2021/12/04 07:33:39;;;;;;;;;3.50;2.25;;;;;;;;4987496;28;45446;-73
2021/12/04 07:36:05;;;;;;;;;7.25;6.25;;;;;;;;4986801;28;46177;-77
2021/12/04 07:38:30;;;;;;;;;6.75;5.75;;;;;;;;4970297;28;45511;-74
2021/12/04 07:40:56;;;;;;;;;3.25;3.00;;;;;;;;4985914;28;45442;-73
2021/12/04 07:43:21;;;;;;;;;10.50;10.50;;;;;;;;4988126;28;45383;-73
2021/12/04 07:45:46;;;;;;;;;4.50;4.00;;;;;;;;4986162;28;46155;-75
2021/12/04 07:48:12;;;;;;;;;12.25;12.25;;;;;;;;4985706;28;45459;-74
2021/12/04 07:50:37;;;;;;;;;30.00;27.25;;;;;;;;4988279;28;45489;-75
2021/12/04 07:53:03;;;;;;;;;2.00;1.00;;;;;;;;4989080;28;45453;-73
2021/12/04 07:55:29;;;;;;;;;1.50;0.00;;;;;;;;4987395;28;46369;-75
2021/12/04 07:57:54;;;;;;;;;1.50;1.50;;;;;;;;4987190;28;45367;-74
2021/12/04 08:00:20;;;;;;;;;2.00;2.00;;;;;;;;4983718;28;45284;-74
2021/12/04 08:02:46;;;;;;;;;1.25;1.25;;;;;;;;4987106;28;45489;-73
2021/12/04 08:05:11;;;;;;;;;1.00;1.00;;;;;;;;4989360;28;45578;-74
2021/12/04 08:07:38;;;;;;;;;6.00;5.00;;;;;;;;4988935;28;45410;-73
2021/12/04 08:10:03;;;;;;;;;4.00;4.00;;;;;;;;4980376;28;45466;-72
2021/12/04 08:12:29;;;;;;;;;2.00;2.00;;;;;;;;4979537;28;45469;-74
2021/12/04 08:14:54;;;;;;;;;3.00;3.00;;;;;;;;4988804;28;45401;-73
2021/12/04 08:17:20;;;;;;;;;1.00;1.00;;;;;;;;4988860;28;45435;-72
2021/12/04 08:19:45;;;;;;;;;0.00;0.00;;;;;;;;4985718;28;45411;-72
2021/12/04 08:22:10;;;;;;;;;0.25;0.25;;;;;;;;4961145;28;45429;-72
2021/12/04 08:24:36;;;;;;;;;0.25;0.25;;;;;;;;4978283;28;45565;-74
2021/12/04 08:27:02;;;;;;;;;0.00;0.00;;;;;;;;4960831;28;45408;-73
2021/12/04 08:29:28;;;;;;;;;1.00;1.00;;;;;;;;4961979;28;45415;-74
2021/12/04 08:31:53;;;;;;;;;1.00;0.00;;;;;;;;4989042;28;45439;-74
2021/12/04 08:34:19;;;;;;;;;2.00;1.00;;;;;;;;4984901;28;46258;-72
2021/12/04 08:36:45;;;;;;;;;1.00;0.00;;;;;;;;4977071;28;45532;-73
2021/12/04 08:39:11;;;;;;;;;0.00;0.00;;;;;;;;4978195;28;45395;-74
2021/12/04 08:41:36;;;;;;;;;0.00;0.00;;;;;;;;4978402;28;45359;-74
2021/12/04 08:44:02;;;;;;;;;2.00;0.00;;;;;;;;4977081;28;45491;-74
2021/12/04 08:46:28;;;;;;;;;0.00;0.00;;;;;;;;4977624;28;45522;-76
2021/12/04 08:48:56;;;;;;;;;0.00;0.00;;;;;;;;4960019;28;45491;-73
2021/12/04 08:51:22;;;;;;;;;0.00;0.00;;;;;;;;4977879;28;45345;-75
2021/12/04 08:53:48;;;;;;;;;3.00;2.00;;;;;;;;4977518;28;45422;-73
2021/12/04 08:56:13;;;;;;;;;1.00;1.00;;;;;;;;4977661;28;45271;-72
2021/12/04 08:58:40;;;;;;;;;0.00;0.00;;;;;;;;4977660;28;45308;-73
2021/12/04 09:01:06;;;;;;;;;0.00;0.00;;;;;;;;4977667;28;45390;-72
2021/12/04 09:03:35;;;;;;;;;1.25;1.25;;;;;;;;4979004;28;47068;-71
2021/12/04 09:06:01;;;;;;;;;2.25;2.00;;;;;;;;4985442;28;45553;-73
2021/12/04 09:08:28;;;;;;;;;0.00;0.00;;;;;;;;4977284;28;45260;-76
2021/12/04 09:10:54;;;;;;;;;2.00;0.00;;;;;;;;4977801;28;45481;-75
2021/12/04 09:13:20;;;;;;;;;1.50;1.50;;;;;;;;4976977;28;45671;-74
2021/12/04 09:15:46;;;;;;;;;1.00;1.00;;;;;;;;4977031;28;45527;-77
2021/12/04 09:18:12;;;;;;;;;0.00;0.00;;;;;;;;4977329;28;45568;-73
2021/12/04 09:20:37;;;;;;;;;1.50;0.00;;;;;;;;4977866;28;45355;-75
2021/12/04 09:23:06;;;;;;;;;1.00;1.00;;;;;;;;4976995;28;45656;-74
2021/12/04 09:25:33;;;;;;;;;0.00;0.00;;;;;;;;4959270;28;45315;-75
2021/12/04 09:28:07;;;;;;;;;0.50;0.50;;;;;;;;4977013;28;45342;-73
2021/12/04 09:36:15;;;;;;;;;0.00;0.00;;;;;;;;4977289;28;45345;-75
2021/12/04 10:33:24;;;;;;;;;1.75;1.75;;;;;;;;4915670;28;45529;-69
2021/12/04 10:35:53;;;;;;;;;0.75;0.75;;;;;;;;4915408;28;45514;-71
2021/12/04 10:38:28;;;;;;;;;3.00;3.00;;;;;;;;4914468;28;46425;-71
2021/12/04 10:41:01;;;;;;;;;4.00;2.00;;;;;;;;4914106;28;45444;-73
2021/12/04 10:43:41;;;;;;;;;1.75;1.75;;;;;;;;4914195;28;46600;-77
2021/12/04 10:46:15;;;;;;;;;2.25;2.00;;;;;;;;4896884;28;45448;-74
2021/12/04 10:48:49;;;;;;;;;1.00;1.00;;;;;;;;4912410;28;46360;-76
2021/12/04 10:53:50;;;;;;;;;1.50;1.50;;;;;;;;4936942;28;45364;-71
2021/12/04 11:04:46;;;;;;;;;3.25;1.50;;;;;;;;4981447;28;45509;-75
2021/12/04 11:18:48;;;;;;;;;1.75;1.75;;;;;;;;4979332;28;45408;-74
2021/12/04 11:24:37;;;;;;;;;1.00;1.00;;;;;;;;4979148;28;45430;-73
2021/12/04 11:46:30;;;;;;;;;1.75;1.75;;;;;;;;4898113;29;45448;-75
2021/12/04 11:48:59;;;;;;;;;4.00;4.00;;;;;;;;4898083;29;45356;-78
2021/12/04 11:51:25;;;;;;;;;3.00;1.00;;;;;;;;4897443;29;45367;-75
2021/12/04 11:53:51;;;;;;;;;2.00;2.00;;;;;;;;4897710;29;47180;-78
2021/12/04 11:56:18;;;;;;;;;4.00;3.00;;;;;;;;4897812;29;45704;-74
2021/12/04 11:58:45;;;;;;;;;1.00;1.00;;;;;;;;4882068;29;45556;-75
2021/12/04 12:01:30;;;;;;;;;2.00;2.00;;;;;;;;4897835;29;45429;-75
2021/12/04 12:03:57;;;;;;;;;4.00;4.00;;;;;;;;4897341;29;46996;-73
2021/12/04 12:06:43;;;;;;;;;3.50;3.00;;;;;;;;4897445;29;45358;-74
2021/12/04 12:09:14;;;;;;;;;4.75;4.50;;;;;;;;4897303;29;45568;-75
2021/12/04 12:12:07;;;;;;;;;4.75;4.00;;;;;;;;4916950;28;45471;-74
2021/12/04 12:14:40;;;;;;;;;5.25;4.75;;;;;;;;4974962;28;45451;-76
2021/12/04 12:17:06;;;;;;;;;3.25;3.25;;;;;;;;4975648;28;46458;-76
2021/12/04 12:19:45;;;;;;;;;8.50;6.00;;;;;;;;4977539;28;45510;-74
2021/12/04 12:25:15;;;;;;;;;3.25;3.25;;;;;;;;4977111;28;46034;-80
2021/12/04 12:33:35;;;;;;;;;5.75;5.75;;;;;;;;4984035;28;45440;-75
2021/12/04 12:36:05;;;;;;;;;8.00;5.50;;;;;;;;4982516;28;47128;-75
2021/12/04 12:38:38;;;;;;;;;8.00;8.00;;;;;;;;4984903;28;45457;-82
2021/12/04 12:41:03;;;;;;;;;11.25;8.00;;;;;;;;4966550;28;45653;-74
2021/12/04 12:43:34;;;;;;;;;11.75;8.25;;;;;;;;4982075;28;45797;-75
2021/12/04 12:46:00;;;;;;;;;11.25;9.00;;;;;;;;4985824;28;46342;-77
2021/12/04 12:48:25;;;;;;;;;4.75;4.75;;;;;;;;4978811;28;45482;-75
2021/12/04 12:50:52;;;;;;;;;4.25;3.50;;;;;;;;4975953;28;45764;-77
2021/12/04 12:53:26;;;;;;;;;6.00;4.25;;;;;;;;4959308;28;45451;-79
2021/12/04 12:55:53;;;;;;;;;5.00;5.00;;;;;;;;4986418;28;46076;-76
2021/12/04 12:58:19;;;;;;;;;9.00;4.00;;;;;;;;4995668;28;45398;-76
2021/12/04 13:12:07;;;;;;;;;7.00;4.00;;;;;;;;4995590;28;45732;-74
2021/12/04 13:14:45;;;;;;;;;2.75;1.50;;;;;;;;4995747;28;45311;-75
2021/12/04 13:17:16;;;;;;;;;4.00;4.00;;;;;;;;4992281;28;46659;-76
2021/12/04 13:19:46;;;;;;;;;2.75;2.75;;;;;;;;4982583;28;45369;-75
2021/12/04 13:22:13;;;;;;;;;5.75;5.00;;;;;;;;4984653;28;45462;-75
2021/12/04 13:24:43;;;;;;;;;2.00;2.00;;;;;;;;4983342;28;45664;-75
2021/12/04 13:29:40;;;;;;;;;6.25;6.25;;;;;;;;4989259;28;45812;-73
2021/12/04 13:32:06;;;;;;;;;6.25;6.25;;;;;;;;4983888;28;45748;-74
2021/12/04 13:34:33;;;;;;;;;3.75;3.75;;;;;;;;4964392;28;45478;-74
2021/12/04 13:36:59;;;;;;;;;5.50;3.00;;;;;;;;4986318;28;46211;-76
2021/12/04 13:39:25;;;;;;;;;6.50;6.50;;;;;;;;4983356;28;45280;-75
2021/12/04 13:41:54;;;;;;;;;6.00;5.00;;;;;;;;4985954;28;45406;-72
2021/12/04 13:44:21;;;;;;;;;2.00;2.00;;;;;;;;4992094;28;45493;-73
2021/12/04 13:46:48;;;;;;;;;7.75;6.25;;;;;;;;4980748;28;46281;-73
2021/12/04 13:49:15;;;;;;;;;1.25;1.25;;;;;;;;4975001;28;45378;-74
2021/12/04 13:51:40;;;;;;;;;4.50;3.75;;;;;;;;4976209;28;45347;-76
2021/12/04 13:54:07;;;;;;;;;1.50;1.50;;;;;;;;4976610;28;45517;-77
2021/12/04 13:56:38;;;;;;;;;3.00;3.00;;;;;;;;4981395;28;45500;-76
2021/12/04 13:59:05;;;;;;;;;3.50;3.25;;;;;;;;4990540;28;45387;-73
2021/12/04 14:01:35;;;;;;;;;2.00;2.00;;;;;;;;4986024;28;45382;-81
2021/12/04 14:04:02;;;;;;;;;8.00;4.00;;;;;;;;4978888;28;45465;-73
2021/12/04 14:06:28;;;;;;;;;5.00;3.75;;;;;;;;4985573;28;46389;-74
2021/12/04 14:08:58;;;;;;;;;141.33;122.67;;;;;;;;4983631;28;45323;-74
2021/12/04 14:11:28;;;;;;;;;31.00;23.75;;;;;;;;4981651;28;45446;-71
2021/12/04 14:13:53;;;;;;;;;5.25;2.50;;;;;;;;4984321;28;45352;-72
2021/12/04 14:16:22;;;;;;;;;4.75;4.75;;;;;;;;4982618;28;47347;-72
2021/12/04 14:18:47;;;;;;;;;5.00;3.25;;;;;;;;4982424;28;45537;-74
2021/12/04 14:21:15;;;;;;;;;4.00;4.00;;;;;;;;4984466;28;45454;-75
2021/12/04 14:23:40;;;;;;;;;4.00;4.00;;;;;;;;4984941;28;45545;-75
2021/12/04 14:26:08;;;;;;;;;4.50;4.00;;;;;;;;4975187;28;45740;-70
2021/12/04 14:28:36;;;;;;;;;7.00;5.25;;;;;;;;4957059;28;45354;-73
2021/12/04 14:31:01;;;;;;;;;6.25;6.25;;;;;;;;4974496;28;45271;-72
2021/12/04 14:33:26;;;;;;;;;5.00;5.00;;;;;;;;4974708;28;45344;-71
2021/12/04 14:35:53;;;;;;;;;3.50;3.50;;;;;;;;4974390;28;46794;-73
2021/12/04 14:38:25;;;;;;;;;6.50;4.50;;;;;;;;4974526;28;45386;-72
2021/12/04 14:41:02;;;;;;;;;9.00;7.50;;;;;;;;4978125;28;45404;-72
2021/12/04 14:43:30;;;;;;;;;6.25;6.25;;;;;;;;4985324;28;45763;-71
2021/12/04 14:45:58;;;;;;;;;3.00;3.00;;;;;;;;4977888;28;46591;-72
2021/12/04 14:48:25;;;;;;;;;7.25;5.00;;;;;;;;4978095;28;45352;-70
2021/12/04 14:50:52;;;;;;;;;5.00;3.75;;;;;;;;4977805;28;45420;-70
2021/12/04 14:53:18;;;;;;;;;2.50;1.25;;;;;;;;4976643;28;45362;-71
2021/12/04 14:55:45;;;;;;;;;5.50;5.50;;;;;;;;4959917;28;47184;-73
2021/12/04 14:58:13;;;;;;;;;7.75;3.25;;;;;;;;4977987;28;45425;-74
2021/12/04 15:00:44;;;;;;;;;3.00;3.00;;;;;;;;4977782;28;45335;-70
2021/12/04 15:03:10;;;;;;;;;2.00;2.00;;;;;;;;4976732;28;45411;-77
2021/12/04 15:05:37;;;;;;;;;5.00;3.50;;;;;;;;4978075;28;46217;-78
2021/12/04 15:08:10;;;;;;;;;4.00;4.00;;;;;;;;4976597;28;45367;-78
2021/12/04 15:10:36;;;;;;;;;9.25;9.25;;;;;;;;4959788;28;45723;-76
2021/12/04 15:13:02;;;;;;;;;5.00;5.00;;;;;;;;4978603;28;45434;-77
2021/12/04 15:15:29;;;;;;;;;10.00;6.75;;;;;;;;4978116;28;46342;-77
2021/12/04 15:17:56;;;;;;;;;5.00;4.00;;;;;;;;4960307;28;45604;-73
2021/12/04 15:20:30;;;;;;;;;1.50;1.50;;;;;;;;4976608;28;45438;-77
2021/12/04 15:22:58;;;;;;;;;5.00;4.00;;;;;;;;4960511;28;45543;-75
2021/12/04 15:25:30;;;;;;;;;2.25;1.25;;;;;;;;4976918;28;46372;-81
2021/12/04 15:27:56;;;;;;;;;7.75;5.50;;;;;;;;4959945;28;45445;-71
2021/12/04 15:30:24;;;;;;;;;11.25;6.75;;;;;;;;4977575;28;45488;-74
2021/12/04 15:32:49;;;;;;;;;9.75;9.75;;;;;;;;4960550;28;45570;-79
2021/12/04 15:35:23;;;;;;;;;3.00;1.50;;;;;;;;4993592;23;45848;-73
2021/12/04 15:37:59;;;;;;;;;3.00;1.50;;;;;;;;4966573;28;46354;-76
2021/12/04 15:40:33;;;;;;;;;3.00;1.25;;;;;;;;4959519;28;45438;-72
2021/12/04 15:45:35;;;;;;;;;3.00;3.00;;;;;;;;4977269;28;45999;-75
2021/12/04 15:48:42;;;;;;;;;5.75;4.50;;;;;;;;4959274;28;45463;-74
2021/12/04 15:54:02;;;;;;;;;1.25;1.25;;;;;;;;4977208;28;45345;-73
2021/12/04 15:56:31;;;;;;;;;3.25;3.00;;;;;;;;4976577;28;46230;-73
2021/12/04 15:58:57;;;;;;;;;1.00;1.00;;;;;;;;4959106;28;45396;-72
2021/12/04 16:01:26;;;;;;;;;1.00;1.00;;;;;;;;4959035;28;45446;-72
2021/12/04 16:03:51;;;;;;;;;1.50;1.50;;;;;;;;4959477;28;45499;-73
2021/12/04 16:06:17;;;;;;;;;6.50;4.75;;;;;;;;4975132;28;47777;-74
2021/12/04 16:08:48;;;;;;;;;4.75;1.50;;;;;;;;4959283;28;45479;-74
2021/12/04 16:11:15;;;;;;;;;2.00;1.00;;;;;;;;4977213;28;45307;-73
2021/12/04 16:13:44;;;;;;;;;2.75;2.75;;;;;;;;4959337;28;45558;-73
2021/12/04 16:16:15;;;;;;;;;2.50;2.50;;;;;;;;4959124;28;47071;-80
2021/12/04 16:18:41;;;;;;;;;2.25;2.25;;;;;;;;4976891;28;45563;-76
2021/12/04 16:21:07;;;;;;;;;3.00;2.50;;;;;;;;4961846;28;45431;-77
2021/12/04 16:23:42;;;;;;;;;2.00;2.00;;;;;;;;4960612;28;45649;-77
2021/12/04 16:26:12;;;;;;;;;1.50;1.50;;;;;;;;4976488;28;46514;-81
2021/12/04 16:36:36;;;;;;;;;4.25;4.00;;;;;;;;4980354;28;45307;-79
2021/12/04 16:39:04;;;;;;;;;3.50;1.00;;;;;;;;4968742;28;45438;-78
2021/12/04 16:41:29;;;;;;;;;2.00;2.00;;;;;;;;4990062;28;45464;-75
2021/12/04 16:43:55;;;;;;;;;1.00;1.00;;;;;;;;4982930;28;45513;-79
2021/12/04 16:46:24;;;;;;;;;7.00;3.25;;;;;;;;4985186;28;46289;-77
2021/12/04 16:48:51;;;;;;;;;2.75;2.75;;;;;;;;4969351;28;45515;-77
2021/12/04 16:59:41;;;;;;;;;1.00;0.00;;;;;;;;4927750;28;45876;-75
2021/12/04 17:02:09;;;;;;;;;0.75;0.75;;;;;;;;4933620;28;45421;-74
2021/12/04 17:04:35;;;;;;;;;2.25;1.25;;;;;;;;4917750;28;45557;-72
2021/12/04 17:07:03;;;;;;;;;0.00;0.00;;;;;;;;4932140;28;46941;-75
2021/12/04 17:09:28;;;;;;;;;0.00;0.00;;;;;;;;4929241;28;45486;-78
2021/12/04 17:11:56;;;;;;;;;1.00;1.00;;;;;;;;4933511;28;45366;-81
2021/12/04 17:14:25;;;;;;;;;1.00;1.00;;;;;;;;4933396;28;45501;-77
2021/12/04 17:16:52;;;;;;;;;4.00;2.50;;;;;;;;4933093;28;46234;-76
2021/12/04 17:19:17;;;;;;;;;1.25;1.25;;;;;;;;4932309;28;45409;-73
2021/12/04 17:21:45;;;;;;;;;4.00;4.00;;;;;;;;4926853;28;45803;-75
2021/12/04 17:24:11;;;;;;;;;10.25;8.25;;;;;;;;4931043;28;45388;-77
2021/12/04 17:26:47;;;;;;;;;3.75;2.75;;;;;;;;5106238;27;45433;-74
2021/12/04 17:29:14;;;;;;;;;5.25;4.00;;;;;;;;5087947;27;45506;-74
2021/12/04 17:31:40;;;;;;;;;3.75;1.00;;;;;;;;5087766;27;45483;-71
2021/12/04 17:34:16;;;;;;;;;1.00;1.00;;;;;;;;5088231;27;45523;-79
2021/12/04 17:36:41;;;;;;;;;3.50;2.75;;;;;;;;5089222;27;48090;-81
2021/12/04 17:39:08;;;;;;;;;4.50;4.50;;;;;;;;5071310;27;45502;-81
2021/12/04 17:41:35;;;;;;;;;2.00;2.00;;;;;;;;5091368;27;45518;-79
2021/12/04 17:44:04;;;;;;;;;4.00;4.00;;;;;;;;5086999;27;45457;-73
2021/12/04 17:46:30;;;;;;;;;3.00;3.00;;;;;;;;5089475;27;46291;-76
2021/12/04 17:48:57;;;;;;;;;4.50;3.25;;;;;;;;5090022;27;45416;-78
2021/12/04 17:51:23;;;;;;;;;4.75;3.75;;;;;;;;5090765;27;45500;-85
2021/12/04 17:53:50;;;;;;;;;1.50;1.00;;;;;;;;5089334;27;45576;-79
2021/12/04 17:56:16;;;;;;;;;4.50;4.50;;;;;;;;5089024;27;46794;-78
2021/12/04 17:58:41;;;;;;;;;3.00;2.00;;;;;;;;5090677;27;45488;-77
2021/12/04 18:01:10;;;;;;;;;6.00;6.00;;;;;;;;5089367;27;45340;-74
2021/12/04 18:03:38;;;;;;;;;6.00;6.00;;;;;;;;5090329;27;45560;-77
2021/12/04 18:06:05;;;;;;;;;7.00;6.00;;;;;;;;5087936;27;45702;-78
2021/12/04 18:08:31;;;;;;;;;2.75;2.75;;;;;;;;5089903;27;45371;-72
2021/12/04 18:10:58;;;;;;;;;7.25;3.25;;;;;;;;5089646;27;45362;-74
2021/12/04 18:13:25;;;;;;;;;5.50;4.50;;;;;;;;5089159;27;45566;-74
2021/12/04 18:15:52;;;;;;;;;7.25;7.00;;;;;;;;5089101;27;47688;-75
2021/12/04 18:18:19;;;;;;;;;8.50;6.75;;;;;;;;5089505;27;45487;-75
2021/12/04 18:20:45;;;;;;;;;7.25;6.75;;;;;;;;5090272;27;45532;-77